createdAt,value
2017-03-20T00:00:10.648Z,1002.05
2017-03-20T00:00:51.120Z,1002.05
2017-03-20T00:01:31.613Z,1002.04
2017-03-20T00:02:12.089Z,1002.01
2017-03-20T00:02:52.582Z,1002.01
2017-03-20T00:03:33.064Z,1002
2017-03-20T00:04:13.554Z,1002.08
2017-03-20T00:04:54.033Z,1002.03
2017-03-20T00:05:34.524Z,1002.1
2017-03-20T00:06:15.008Z,1002.04
2017-03-20T00:06:55.491Z,1002.1
2017-03-20T00:07:35.987Z,1002.08
2017-03-20T00:08:16.488Z,1002.08
2017-03-20T00:08:56.969Z,1002.06
2017-03-20T00:09:37.458Z,1002.11
2017-03-20T00:10:17.959Z,1002.09
2017-03-20T00:10:58.441Z,1002.06
2017-03-20T00:11:38.941Z,1002.06
2017-03-20T00:12:19.436Z,1002.1
2017-03-20T00:12:59.925Z,1002.12
2017-03-20T00:13:40.425Z,1002.16
2017-03-20T00:14:20.913Z,1002.15
2017-03-20T00:15:01.403Z,1002.19
2017-03-20T00:15:41.899Z,1002.19
2017-03-20T00:16:22.396Z,1002.18
2017-03-20T00:17:02.889Z,1002.16
2017-03-20T00:17:43.366Z,1002.2
2017-03-20T00:18:23.870Z,1002.22
2017-03-20T00:19:04.868Z,1002.2
2017-03-20T00:19:45.370Z,1002.22
2017-03-20T00:20:25.863Z,1002.18
2017-03-20T00:21:06.343Z,1002.17
2017-03-20T00:21:46.837Z,1002.16
2017-03-20T00:22:27.340Z,1002.16
2017-03-20T00:23:07.824Z,1002.17
2017-03-20T00:23:48.318Z,1002.17
2017-03-20T00:24:28.824Z,1002.17
2017-03-20T00:25:09.310Z,1002.14
2017-03-20T00:25:49.804Z,1002.2
2017-03-20T00:26:30.288Z,1002.13
2017-03-20T00:27:10.767Z,1002.16
2017-03-20T00:27:51.248Z,1002.14
2017-03-20T00:28:31.737Z,1002.14
2017-03-20T00:29:12.227Z,1002.14
2017-03-20T00:29:52.713Z,1002.14
2017-03-20T00:30:33.220Z,1002.12
2017-03-20T00:31:13.707Z,1002.15
2017-03-20T00:31:54.191Z,1002.14
2017-03-20T00:32:34.688Z,1002.17
2017-03-20T00:33:15.182Z,1002.15
2017-03-20T00:33:55.664Z,1002.18
2017-03-20T00:34:36.160Z,1002.19
2017-03-20T00:35:16.656Z,1002.2
2017-03-20T00:35:57.139Z,1002.17
2017-03-20T00:36:37.618Z,1002.19
2017-03-20T00:37:18.114Z,1002.12
2017-03-20T00:37:58.606Z,1002.09
2017-03-20T00:38:39.097Z,1002.14
2017-03-20T00:39:19.612Z,1002.07
2017-03-20T00:40:00.093Z,1002.15
2017-03-20T00:40:40.589Z,1002.12
2017-03-20T00:41:21.091Z,1002.09
2017-03-20T00:42:01.573Z,1002.09
2017-03-20T00:42:42.054Z,1002.09
2017-03-20T00:43:22.540Z,1002.15
2017-03-20T00:44:03.024Z,1002.11
2017-03-20T00:44:43.505Z,1002.14
2017-03-20T00:45:23.987Z,1002.13
2017-03-20T00:46:04.498Z,1002.15
2017-03-20T00:46:44.985Z,1002.09
2017-03-20T00:47:25.465Z,1002.14
2017-03-20T00:48:05.954Z,1002.12
2017-03-20T00:48:46.446Z,1002.1
2017-03-20T00:49:26.935Z,1002.13
2017-03-20T00:50:07.433Z,1002.15
2017-03-20T00:50:47.934Z,1002.17
2017-03-20T00:51:28.407Z,1002.15
2017-03-20T00:52:08.904Z,1002.19
2017-03-20T00:52:49.396Z,1002.2
2017-03-20T00:53:29.893Z,1002.19
2017-03-20T00:54:10.376Z,1002.17
2017-03-20T00:54:50.873Z,1002.19
2017-03-20T00:55:31.360Z,1002.18
2017-03-20T00:56:11.854Z,1002.23
2017-03-20T00:56:52.350Z,1002.21
2017-03-20T00:57:32.842Z,1002.2
2017-03-20T00:58:13.333Z,1002.19
2017-03-20T00:58:53.824Z,1002.18
2017-03-20T00:59:34.300Z,1002.19
2017-03-20T01:00:14.789Z,1002.18
2017-03-20T01:00:55.288Z,1002.16
2017-03-20T01:01:35.775Z,1002.16
2017-03-20T01:02:16.255Z,1002.14
2017-03-20T01:02:56.747Z,1002.14
2017-03-20T01:03:37.241Z,1002.16
2017-03-20T01:04:17.727Z,1002.11
2017-03-20T01:04:58.224Z,1002.13
2017-03-20T01:05:38.712Z,1002.14
2017-03-20T01:06:19.185Z,1002.14
2017-03-20T01:06:59.679Z,1002.1
2017-03-20T01:07:40.173Z,1002.11
2017-03-20T01:08:20.651Z,1002.17
2017-03-20T01:09:01.146Z,1002.14
2017-03-20T01:09:41.635Z,1002.17
2017-03-20T01:10:22.124Z,1002.14
2017-03-20T01:11:02.610Z,1002.14
2017-03-20T01:11:43.114Z,1002.1
2017-03-20T01:12:23.601Z,1002.13
2017-03-20T01:13:04.094Z,1002.09
2017-03-20T01:13:44.596Z,1002.05
2017-03-20T01:14:25.100Z,1002.1
2017-03-20T01:15:05.599Z,1002.09
2017-03-20T01:15:46.099Z,1002.15
2017-03-20T01:16:26.560Z,1002.04
2017-03-20T01:17:07.042Z,1002.06
2017-03-20T01:17:47.544Z,1002.07
2017-03-20T01:18:28.033Z,1002.02
2017-03-20T01:19:08.517Z,1002.08
2017-03-20T01:19:49.020Z,1002.01
2017-03-20T01:20:29.514Z,1002.02
2017-03-20T01:21:09.999Z,1001.98
2017-03-20T01:21:50.499Z,1001.98
2017-03-20T01:22:30.988Z,1001.98
2017-03-20T01:23:11.475Z,1002.03
2017-03-20T01:23:51.964Z,1002.01
2017-03-20T01:24:32.471Z,1002.01
2017-03-20T01:25:12.949Z,1002.06
2017-03-20T01:25:53.440Z,1002.06
2017-03-20T01:26:33.896Z,1002.03
2017-03-20T01:27:14.395Z,1002.03
2017-03-20T01:27:54.882Z,1002.05
2017-03-20T01:28:35.376Z,1002.05
2017-03-20T01:29:15.807Z,1002.02
2017-03-20T01:29:56.247Z,1001.99
2017-03-20T01:30:36.730Z,1001.96
2017-03-20T01:31:17.176Z,1002
2017-03-20T01:31:57.637Z,1001.95
2017-03-20T01:32:38.129Z,1001.95
2017-03-20T01:33:18.604Z,1001.99
2017-03-20T01:33:59.082Z,1001.99
2017-03-20T01:34:39.504Z,1002.03
2017-03-20T01:36:52.224Z,1001.97
2017-03-20T01:37:32.698Z,1001.98
2017-03-20T01:38:13.174Z,1002
2017-03-20T01:38:53.660Z,1001.99
2017-03-20T01:39:34.144Z,1001.99
2017-03-20T01:40:14.644Z,1002.01
2017-03-20T01:40:55.133Z,1002.01
2017-03-20T01:41:35.622Z,1002.03
2017-03-20T01:42:16.124Z,1002.02
2017-03-20T01:42:56.616Z,1002.02
2017-03-20T01:43:37.102Z,1002.06
2017-03-20T01:44:17.595Z,1002.03
2017-03-20T01:44:58.095Z,1002.05
2017-03-20T01:45:38.564Z,1002.01
2017-03-20T01:46:19.052Z,1002.01
2017-03-20T01:46:59.534Z,1002
2017-03-20T01:47:40.023Z,1002.04
2017-03-20T01:48:20.507Z,1001.99
2017-03-20T01:49:01.002Z,1001.96
2017-03-20T01:49:41.498Z,1001.95
2017-03-20T01:50:21.985Z,1001.93
2017-03-20T01:51:02.472Z,1001.97
2017-03-20T01:51:42.980Z,1001.95
2017-03-20T01:52:23.467Z,1001.95
2017-03-20T01:53:03.967Z,1001.97
2017-03-20T01:53:44.463Z,1001.96
2017-03-20T01:54:24.949Z,1001.92
2017-03-20T01:55:05.427Z,1001.94
2017-03-20T01:55:45.920Z,1001.91
2017-03-20T01:56:26.409Z,1001.95
2017-03-20T01:57:06.891Z,1001.93
2017-03-20T01:57:47.386Z,1001.96
2017-03-20T01:58:27.874Z,1001.94
2017-03-20T01:59:08.354Z,1001.96
2017-03-20T01:59:48.860Z,1001.95
2017-03-20T02:00:29.348Z,1001.92
2017-03-20T02:01:09.823Z,1002
2017-03-20T02:01:50.310Z,1001.97
2017-03-20T02:02:30.791Z,1001.99
2017-03-20T02:03:11.285Z,1001.94
2017-03-20T02:03:51.787Z,1001.95
2017-03-20T02:04:32.246Z,1001.94
2017-03-20T02:05:12.726Z,1001.96
2017-03-20T02:05:53.220Z,1001.96
2017-03-20T02:06:33.704Z,1001.94
2017-03-20T02:07:14.209Z,1001.91
2017-03-20T02:07:54.699Z,1001.93
2017-03-20T02:08:35.186Z,1001.93
2017-03-20T02:11:03.128Z,1001.92
2017-03-20T02:11:43.602Z,1001.9
2017-03-20T02:12:24.094Z,1001.88
2017-03-20T02:13:04.583Z,1001.96
2017-03-20T02:13:45.099Z,1001.89
2017-03-20T02:14:25.558Z,1001.87
2017-03-20T02:15:06.053Z,1001.9
2017-03-20T02:15:46.537Z,1001.9
2017-03-20T02:16:27.030Z,1001.86
2017-03-20T02:17:07.517Z,1001.91
2017-03-20T02:17:48.015Z,1001.9
2017-03-20T02:18:28.508Z,1001.81
2017-03-20T02:19:08.994Z,1001.88
2017-03-20T02:19:49.494Z,1001.88
2017-03-20T02:20:29.984Z,1001.87
2017-03-20T02:21:10.467Z,1001.83
2017-03-20T02:21:50.969Z,1001.85
2017-03-20T02:22:31.459Z,1001.8
2017-03-20T02:23:12.942Z,1001.86
2017-03-20T02:23:53.427Z,1001.83
2017-03-20T02:24:33.933Z,1001.82
2017-03-20T02:25:14.420Z,1001.82
2017-03-20T02:25:55.707Z,1001.82
2017-03-20T02:26:36.209Z,1001.81
2017-03-20T02:27:16.692Z,1001.82
2017-03-20T02:27:57.176Z,1001.82
2017-03-20T02:28:37.673Z,1001.85
2017-03-20T02:29:18.164Z,1001.8
2017-03-20T02:29:58.653Z,1001.77
2017-03-20T02:30:39.156Z,1001.8
2017-03-20T02:31:19.603Z,1001.82
2017-03-20T02:32:00.097Z,1001.79
2017-03-20T02:32:40.587Z,1001.8
2017-03-20T02:33:21.076Z,1001.79
2017-03-20T02:34:01.575Z,1001.85
2017-03-20T02:34:42.067Z,1001.83
2017-03-20T02:35:22.553Z,1001.76
2017-03-20T02:36:03.045Z,1001.79
2017-03-20T02:36:43.545Z,1001.8
2017-03-20T02:37:24.032Z,1001.85
2017-03-20T02:38:04.528Z,1001.83
2017-03-20T02:38:45.008Z,1001.87
2017-03-20T02:39:25.494Z,1001.82
2017-03-20T02:40:05.976Z,1001.83
2017-03-20T02:40:46.455Z,1001.86
2017-03-20T02:41:26.955Z,1001.83
2017-03-20T02:42:07.441Z,1001.83
2017-03-20T02:42:47.943Z,1001.84
2017-03-20T02:43:28.432Z,1001.83
2017-03-20T02:44:08.919Z,1001.83
2017-03-20T02:44:49.419Z,1001.8
2017-03-20T02:45:29.910Z,1001.82
2017-03-20T02:46:10.397Z,1001.79
2017-03-20T02:46:50.895Z,1001.76
2017-03-20T02:47:31.405Z,1001.77
2017-03-20T02:48:11.865Z,1001.74
2017-03-20T02:48:52.370Z,1001.72
2017-03-20T02:49:32.862Z,1001.7
2017-03-20T02:50:13.349Z,1001.71
2017-03-20T02:50:53.854Z,1001.68
2017-03-20T02:51:34.339Z,1001.69
2017-03-20T02:52:14.828Z,1001.65
2017-03-20T02:52:55.328Z,1001.69
2017-03-20T02:53:35.822Z,1001.63
2017-03-20T02:54:16.313Z,1001.63
2017-03-20T02:54:56.812Z,1001.65
2017-03-20T02:55:37.306Z,1001.59
2017-03-20T02:56:17.796Z,1001.6
2017-03-20T02:56:58.311Z,1001.59
2017-03-20T02:57:38.798Z,1001.58
2017-03-20T02:58:19.301Z,1001.56
2017-03-20T02:58:59.791Z,1001.52
2017-03-20T02:59:40.326Z,1001.53
2017-03-20T03:00:20.734Z,1001.54
2017-03-20T03:01:01.235Z,1001.6
2017-03-20T03:01:41.727Z,1001.54
2017-03-20T03:02:22.225Z,1001.55
2017-03-20T03:03:02.713Z,1001.55
2017-03-20T03:03:43.203Z,1001.55
2017-03-20T03:04:23.700Z,1001.6
2017-03-20T03:05:04.192Z,1001.6
2017-03-20T03:05:44.678Z,1001.57
2017-03-20T03:06:25.164Z,1001.59
2017-03-20T03:07:05.668Z,1001.61
2017-03-20T03:07:46.158Z,1001.59
2017-03-20T03:08:26.647Z,1001.6
2017-03-20T03:09:07.142Z,1001.65
2017-03-20T03:09:47.644Z,1001.6
2017-03-20T03:10:28.133Z,1001.59
2017-03-20T03:11:08.625Z,1001.61
2017-03-20T03:11:49.121Z,1001.6
2017-03-20T03:12:29.610Z,1001.65
2017-03-20T03:13:10.107Z,1001.64
2017-03-20T03:13:50.591Z,1001.67
2017-03-20T03:14:31.078Z,1001.68
2017-03-20T03:15:11.576Z,1001.63
2017-03-20T03:15:52.066Z,1001.65
2017-03-20T03:16:32.559Z,1001.69
2017-03-20T03:17:13.055Z,1001.65
2017-03-20T03:17:53.544Z,1001.69
2017-03-20T03:18:34.030Z,1001.64
2017-03-20T03:19:14.531Z,1001.67
2017-03-20T03:19:55.022Z,1001.7
2017-03-20T03:20:35.506Z,1001.67
2017-03-20T03:21:16.007Z,1001.66
2017-03-20T03:21:56.508Z,1001.65
2017-03-20T03:22:36.996Z,1001.65
2017-03-20T03:23:17.486Z,1001.66
2017-03-20T03:23:57.972Z,1001.69
2017-03-20T03:24:38.460Z,1001.68
2017-03-20T03:25:18.968Z,1001.66
2017-03-20T03:25:59.453Z,1001.63
2017-03-20T03:26:39.965Z,1001.65
2017-03-20T03:27:20.466Z,1001.63
2017-03-20T03:28:00.959Z,1001.61
2017-03-20T03:28:41.456Z,1001.62
2017-03-20T03:29:21.954Z,1001.61
2017-03-20T03:30:02.446Z,1001.65
2017-03-20T03:30:42.936Z,1001.67
2017-03-20T03:31:23.436Z,1001.68
2017-03-20T03:32:03.919Z,1001.66
2017-03-20T03:32:44.417Z,1001.65
2017-03-20T03:33:24.904Z,1001.68
2017-03-20T03:34:05.387Z,1001.67
2017-03-20T03:34:45.886Z,1001.66
2017-03-20T03:35:26.381Z,1001.68
2017-03-20T03:36:06.875Z,1001.69
2017-03-20T03:36:47.370Z,1001.67
2017-03-20T03:37:27.859Z,1001.68
2017-03-20T03:38:08.354Z,1001.7
2017-03-20T03:38:49.535Z,1001.69
2017-03-20T03:39:30.045Z,1001.7
2017-03-20T03:40:10.537Z,1001.71
2017-03-20T03:40:51.035Z,1001.73
2017-03-20T03:41:31.529Z,1001.72
2017-03-20T03:42:12.012Z,1001.7
2017-03-20T03:42:52.511Z,1001.69
2017-03-20T03:43:33.001Z,1001.7
2017-03-20T03:44:13.491Z,1001.71
2017-03-20T03:44:53.995Z,1001.72
2017-03-20T03:45:34.479Z,1001.68
2017-03-20T03:46:14.959Z,1001.69
2017-03-20T03:46:55.440Z,1001.64
2017-03-20T03:47:35.935Z,1001.67
2017-03-20T03:48:16.425Z,1001.62
2017-03-20T03:48:56.913Z,1001.67
2017-03-20T03:49:37.415Z,1001.65
2017-03-20T03:50:17.910Z,1001.67
2017-03-20T03:50:58.398Z,1001.69
2017-03-20T03:51:39.628Z,1001.72
2017-03-20T03:52:20.116Z,1001.67
2017-03-20T03:53:00.614Z,1001.66
2017-03-20T03:53:41.107Z,1001.67
2017-03-20T03:54:21.604Z,1001.65
2017-03-20T03:55:02.092Z,1001.65
2017-03-20T03:55:42.586Z,1001.64
2017-03-20T03:56:23.080Z,1001.66
2017-03-20T03:57:03.571Z,1001.67
2017-03-20T03:57:44.056Z,1001.69
2017-03-20T03:58:24.547Z,1001.69
2017-03-20T03:59:05.042Z,1001.68
2017-03-20T03:59:45.537Z,1001.73
2017-03-20T04:00:26.023Z,1001.71
2017-03-20T04:01:06.527Z,1001.65
2017-03-20T04:01:47.025Z,1001.7
2017-03-20T04:02:27.516Z,1001.64
2017-03-20T04:03:08.032Z,1001.7
2017-03-20T04:03:48.509Z,1001.67
2017-03-20T04:04:29.004Z,1001.69
2017-03-20T04:05:09.505Z,1001.71
2017-03-20T04:05:50.000Z,1001.7
2017-03-20T04:06:30.526Z,1001.68
2017-03-20T04:07:11.002Z,1001.68
2017-03-20T04:07:51.502Z,1001.72
2017-03-20T04:08:32.013Z,1001.74
2017-03-20T04:09:12.503Z,1001.73
2017-03-20T04:09:52.990Z,1001.75
2017-03-20T04:10:34.454Z,1001.72
2017-03-20T04:11:14.917Z,1001.72
2017-03-20T04:11:55.426Z,1001.74
2017-03-20T04:12:35.914Z,1001.68
2017-03-20T04:13:16.413Z,1001.7
2017-03-20T04:13:56.903Z,1001.72
2017-03-20T04:14:37.400Z,1001.69
2017-03-20T04:15:17.871Z,1001.72
2017-03-20T04:15:58.378Z,1001.7
2017-03-20T04:16:38.859Z,1001.73
2017-03-20T04:17:19.356Z,1001.75
2017-03-20T04:17:59.859Z,1001.69
2017-03-20T04:18:40.332Z,1001.73
2017-03-20T04:19:20.818Z,1001.77
2017-03-20T04:20:01.305Z,1001.76
2017-03-20T04:20:41.792Z,1001.79
2017-03-20T04:21:22.282Z,1001.71
2017-03-20T04:22:02.777Z,1001.77
2017-03-20T04:22:43.271Z,1001.76
2017-03-20T04:23:23.755Z,1001.81
2017-03-20T04:24:04.255Z,1001.8
2017-03-20T04:24:44.748Z,1001.77
2017-03-20T04:25:25.221Z,1001.83
2017-03-20T04:26:05.711Z,1001.81
2017-03-20T04:26:46.220Z,1001.84
2017-03-20T04:27:26.708Z,1001.82
2017-03-20T04:28:07.187Z,1001.8
2017-03-20T04:28:47.679Z,1001.78
2017-03-20T04:29:28.166Z,1001.8
2017-03-20T04:30:08.657Z,1001.81
2017-03-20T04:30:49.148Z,1001.78
2017-03-20T04:31:29.641Z,1001.77
2017-03-20T04:32:10.163Z,1001.76
2017-03-20T04:32:51.229Z,1001.78
2017-03-20T04:33:31.726Z,1001.72
2017-03-20T04:34:12.213Z,1001.73
2017-03-20T04:34:52.713Z,1001.67
2017-03-20T04:35:33.203Z,1001.73
2017-03-20T04:36:13.691Z,1001.67
2017-03-20T04:36:54.190Z,1001.71
2017-03-20T04:37:34.669Z,1001.68
2017-03-20T04:38:15.160Z,1001.66
2017-03-20T04:38:55.662Z,1001.67
2017-03-20T04:39:36.157Z,1001.71
2017-03-20T04:40:16.644Z,1001.72
2017-03-20T04:40:57.147Z,1001.69
2017-03-20T04:41:37.646Z,1001.66
2017-03-20T04:42:18.135Z,1001.69
2017-03-20T04:42:58.627Z,1001.67
2017-03-20T04:43:39.118Z,1001.67
2017-03-20T04:44:19.615Z,1001.64
2017-03-20T04:45:00.095Z,1001.64
2017-03-20T04:45:40.587Z,1001.58
2017-03-20T04:46:21.074Z,1001.64
2017-03-20T04:47:01.576Z,1001.63
2017-03-20T04:47:42.067Z,1001.62
2017-03-20T04:48:22.596Z,1001.65
2017-03-20T04:49:03.050Z,1001.62
2017-03-20T04:49:43.569Z,1001.65
2017-03-20T04:50:24.031Z,1001.65
2017-03-20T04:51:04.530Z,1001.64
2017-03-20T04:51:45.037Z,1001.71
2017-03-20T04:52:25.510Z,1001.7
2017-03-20T04:53:06.008Z,1001.72
2017-03-20T04:53:46.511Z,1001.75
2017-03-20T04:54:27.001Z,1001.74
2017-03-20T04:55:07.492Z,1001.77
2017-03-20T04:55:48.015Z,1001.79
2017-03-20T04:56:28.431Z,1001.79
2017-03-20T04:57:08.918Z,1001.84
2017-03-20T04:57:49.413Z,1001.87
2017-03-20T04:58:29.908Z,1001.91
2017-03-20T04:59:10.412Z,1001.82
2017-03-20T04:59:50.895Z,1001.9
2017-03-20T05:00:31.387Z,1001.88
2017-03-20T05:01:11.884Z,1001.88
2017-03-20T05:01:52.374Z,1001.86
2017-03-20T05:02:32.867Z,1001.94
2017-03-20T05:03:13.360Z,1001.89
2017-03-20T05:03:53.861Z,1001.91
2017-03-20T05:04:34.342Z,1001.91
2017-03-20T05:05:14.828Z,1001.89
2017-03-20T05:05:55.328Z,1001.93
2017-03-20T05:06:35.818Z,1001.87
2017-03-20T05:07:16.300Z,1001.87
2017-03-20T05:07:56.802Z,1001.93
2017-03-20T05:08:37.301Z,1001.89
2017-03-20T05:09:17.787Z,1001.89
2017-03-20T05:09:58.283Z,1001.93
2017-03-20T05:10:38.782Z,1001.91
2017-03-20T05:11:19.275Z,1001.93
2017-03-20T05:11:59.769Z,1001.93
2017-03-20T05:12:40.261Z,1001.9
2017-03-20T05:13:20.749Z,1001.92
2017-03-20T05:14:01.244Z,1001.89
2017-03-20T05:14:41.726Z,1001.9
2017-03-20T05:15:22.200Z,1001.91
2017-03-20T05:16:02.666Z,1001.91
2017-03-20T05:16:43.164Z,1001.94
2017-03-20T05:17:23.662Z,1001.91
2017-03-20T05:18:04.147Z,1001.95
2017-03-20T05:18:44.648Z,1001.92
2017-03-20T05:19:25.142Z,1001.91
2017-03-20T05:20:05.636Z,1001.89
2017-03-20T05:20:46.127Z,1001.98
2017-03-20T05:21:26.675Z,1001.92
2017-03-20T05:22:07.101Z,1002.02
2017-03-20T05:22:47.601Z,1001.94
2017-03-20T05:23:28.097Z,1002.01
2017-03-20T05:24:08.587Z,1002
2017-03-20T05:24:49.081Z,1002
2017-03-20T05:25:29.570Z,1002.07
2017-03-20T05:26:10.062Z,1002
2017-03-20T05:26:50.566Z,1002.03
2017-03-20T05:27:31.051Z,1001.97
2017-03-20T05:28:11.551Z,1002
2017-03-20T05:28:52.036Z,1002.03
2017-03-20T05:29:32.529Z,1002.02
2017-03-20T05:30:13.020Z,1002.03
2017-03-20T05:30:53.514Z,1002
2017-03-20T05:31:34.004Z,1002.06
2017-03-20T05:32:14.498Z,1002.01
2017-03-20T05:32:54.991Z,1001.99
2017-03-20T05:33:35.480Z,1001.98
2017-03-20T05:34:15.976Z,1001.99
2017-03-20T05:34:56.463Z,1002.02
2017-03-20T05:35:36.955Z,1001.99
2017-03-20T05:36:17.456Z,1002.01
2017-03-20T05:36:57.947Z,1001.95
2017-03-20T05:37:38.432Z,1001.99
2017-03-20T05:38:18.929Z,1001.97
2017-03-20T05:38:59.421Z,1001.98
2017-03-20T05:39:39.913Z,1001.98
2017-03-20T05:40:20.397Z,1001.99
2017-03-20T05:41:00.899Z,1001.93
2017-03-20T05:41:41.390Z,1001.94
2017-03-20T05:42:21.886Z,1002
2017-03-20T05:43:02.374Z,1001.96
2017-03-20T05:43:42.864Z,1001.93
2017-03-20T05:44:23.352Z,1001.99
2017-03-20T05:45:03.837Z,1002
2017-03-20T05:45:44.344Z,1002.01
2017-03-20T05:46:24.806Z,1001.97
2017-03-20T05:47:05.285Z,1002.04
2017-03-20T05:47:45.783Z,1002
2017-03-20T05:48:26.273Z,1002.01
2017-03-20T05:49:07.809Z,1002.02
2017-03-20T05:49:48.267Z,1001.99
2017-03-20T05:50:28.777Z,1001.99
2017-03-20T05:51:09.265Z,1002
2017-03-20T05:51:49.769Z,1002
2017-03-20T05:52:30.259Z,1002.05
2017-03-20T05:53:10.720Z,1001.97
2017-03-20T05:53:51.213Z,1001.99
2017-03-20T05:54:31.678Z,1001.96
2017-03-20T05:55:12.150Z,1002.01
2017-03-20T05:55:53.157Z,1001.97
2017-03-20T05:56:33.640Z,1001.94
2017-03-20T05:57:14.105Z,1001.95
2017-03-20T05:57:54.599Z,1001.9
2017-03-20T05:58:35.101Z,1001.93
2017-03-20T05:59:15.658Z,1001.92
2017-03-20T05:59:56.056Z,1001.98
2017-03-20T06:00:36.570Z,1001.96
2017-03-20T06:01:17.057Z,1002.01
2017-03-20T06:01:57.561Z,1001.95
2017-03-20T06:02:38.050Z,1001.94
2017-03-20T06:03:18.535Z,1001.98
2017-03-20T06:03:59.016Z,1001.95
2017-03-20T06:04:39.525Z,1001.99
2017-03-20T06:05:20.015Z,1002.03
2017-03-20T06:06:00.546Z,1001.97
2017-03-20T06:06:41.035Z,1001.97
2017-03-20T06:09:08.966Z,1001.96
2017-03-20T06:09:49.465Z,1001.9
2017-03-20T06:10:29.947Z,1001.92
2017-03-20T06:11:10.436Z,1001.93
2017-03-20T06:11:50.916Z,1001.94
2017-03-20T06:12:31.406Z,1001.94
2017-03-20T06:13:11.894Z,1001.94
2017-03-20T06:13:52.392Z,1001.9
2017-03-20T06:14:32.859Z,1001.89
2017-03-20T06:15:13.351Z,1001.95
2017-03-20T06:15:53.819Z,1001.88
2017-03-20T06:16:34.316Z,1001.97
2017-03-20T06:17:14.819Z,1001.93
2017-03-20T06:17:55.304Z,1002
2017-03-20T06:18:35.791Z,1002
2017-03-20T06:19:16.279Z,1001.98
2017-03-20T06:19:56.762Z,1002.03
2017-03-20T06:20:37.234Z,1002.01
2017-03-20T06:21:17.740Z,1002.03
2017-03-20T06:21:58.228Z,1002.02
2017-03-20T06:22:38.713Z,1002.04
2017-03-20T06:23:19.207Z,1002.05
2017-03-20T06:23:59.704Z,1002.09
2017-03-20T06:24:40.208Z,1002.07
2017-03-20T06:25:20.669Z,1002.07
2017-03-20T06:26:01.157Z,1002.08
2017-03-20T06:26:41.642Z,1002.05
2017-03-20T06:27:22.132Z,1002.08
2017-03-20T06:28:02.639Z,1002.07
2017-03-20T06:28:43.134Z,1002.08
2017-03-20T06:29:23.633Z,1002.07
2017-03-20T06:30:04.134Z,1002.1
2017-03-20T06:30:44.612Z,1002.07
2017-03-20T06:31:25.119Z,1002.06
2017-03-20T06:32:05.613Z,1002.09
2017-03-20T06:32:46.112Z,1002.1
2017-03-20T06:33:26.603Z,1002.02
2017-03-20T06:34:07.089Z,1002.06
2017-03-20T06:34:47.589Z,1002.12
2017-03-20T06:35:28.072Z,1002.07
2017-03-20T06:36:08.570Z,1002.1
2017-03-20T06:36:49.067Z,1002.11
2017-03-20T06:37:29.585Z,1002.1
2017-03-20T06:38:10.079Z,1002.11
2017-03-20T06:38:50.577Z,1002.12
2017-03-20T06:39:31.907Z,1002.1
2017-03-20T06:40:12.409Z,1002.1
2017-03-20T06:40:52.901Z,1002.09
2017-03-20T06:41:33.400Z,1002.12
2017-03-20T06:42:13.898Z,1002.08
2017-03-20T06:42:54.385Z,1002.07
2017-03-20T06:43:34.881Z,1002.09
2017-03-20T06:44:15.374Z,1002.09
2017-03-20T06:44:55.860Z,1002.06
2017-03-20T06:45:36.356Z,1002.08
2017-03-20T06:46:16.848Z,1002.1
2017-03-20T06:46:57.331Z,1002.05
2017-03-20T06:47:37.877Z,1002.08
2017-03-20T06:48:18.547Z,1002.07
2017-03-20T06:48:59.138Z,1002.03
2017-03-20T06:49:39.808Z,1001.98
2017-03-20T06:50:20.385Z,1002.03
2017-03-20T06:51:00.913Z,1002.07
2017-03-20T06:51:41.399Z,1002.05
2017-03-20T06:52:21.900Z,1002.04
2017-03-20T06:53:02.392Z,1002.01
2017-03-20T06:53:42.892Z,1002.06
2017-03-20T06:54:23.396Z,1002.01
2017-03-20T06:55:03.895Z,1002.05
2017-03-20T06:55:44.384Z,1002.05
2017-03-20T06:56:24.876Z,1002.1
2017-03-20T06:57:05.360Z,1002.13
2017-03-20T06:57:45.865Z,1002.1
2017-03-20T06:58:26.349Z,1002.08
2017-03-20T06:59:06.839Z,1002.09
2017-03-20T06:59:47.345Z,1002.09
2017-03-20T07:00:27.832Z,1002.07
2017-03-20T07:01:08.318Z,1002.03
2017-03-20T07:01:48.825Z,1002.02
2017-03-20T07:02:29.321Z,1001.98
2017-03-20T07:03:09.825Z,1001.97
2017-03-20T07:03:50.325Z,1002.07
2017-03-20T07:04:30.822Z,1002.06
2017-03-20T07:05:11.317Z,1002.05
2017-03-20T07:05:51.812Z,1002.08
2017-03-20T07:06:32.368Z,1002.05
2017-03-20T07:07:12.936Z,1002.05
2017-03-20T07:07:53.439Z,1002.03
2017-03-20T07:08:33.941Z,1002.01
2017-03-20T07:09:14.458Z,1002.04
2017-03-20T07:09:55.041Z,1002.03
2017-03-20T07:10:35.589Z,1002.08
2017-03-20T07:11:16.273Z,1002.07
2017-03-20T07:11:56.878Z,1002.05
2017-03-20T07:12:37.426Z,1002.06
2017-03-20T07:13:17.908Z,1002.02
2017-03-20T07:13:59.055Z,1002.09
2017-03-20T07:14:39.158Z,1002.05
2017-03-20T07:15:19.688Z,1002.11
2017-03-20T07:16:00.288Z,1002.11
2017-03-20T07:16:40.820Z,1002.08
2017-03-20T07:17:21.383Z,1002.03
2017-03-20T07:18:01.911Z,1002.05
2017-03-20T07:18:42.494Z,1002.04
2017-03-20T07:19:23.075Z,1002.04
2017-03-20T07:20:03.661Z,1002.03
2017-03-20T07:20:44.223Z,1002.09
2017-03-20T07:21:24.717Z,1002.11
2017-03-20T07:22:05.325Z,1002.12
2017-03-20T07:22:45.914Z,1002.18
2017-03-20T07:23:26.560Z,1002.22
2017-03-20T07:24:07.174Z,1002.21
2017-03-20T07:24:47.656Z,1002.19
2017-03-20T07:25:28.187Z,1002.13
2017-03-20T07:26:08.729Z,1002.12
2017-03-20T07:26:49.303Z,1002.17
2017-03-20T07:27:29.849Z,1002.09
2017-03-20T07:28:10.435Z,1002.07
2017-03-20T07:28:51.024Z,1002.08
2017-03-20T07:29:31.505Z,1002.15
2017-03-20T07:30:12.087Z,1002.03
2017-03-20T07:30:52.600Z,1002.08
2017-03-20T07:31:33.141Z,1002.15
2017-03-20T07:32:13.712Z,1002.21
2017-03-20T07:32:54.329Z,1002.21
2017-03-20T07:33:34.861Z,1002.17
2017-03-20T07:34:15.389Z,1002.24
2017-03-20T07:34:55.939Z,1002.18
2017-03-20T07:35:36.481Z,1002.16
2017-03-20T07:36:16.995Z,1002.19
2017-03-20T07:36:57.522Z,1002.1
2017-03-20T07:37:38.057Z,1002.07
2017-03-20T07:38:18.586Z,1002.07
2017-03-20T07:38:59.104Z,1002.09
2017-03-20T07:39:39.664Z,1002.04
2017-03-20T07:40:20.181Z,1002.05
2017-03-20T07:41:00.679Z,1002.2
2017-03-20T07:41:41.205Z,1002.25
2017-03-20T07:42:21.726Z,1002.42
2017-03-20T07:43:02.246Z,1002.57
2017-03-20T07:43:42.802Z,1002.72
2017-03-20T07:44:23.317Z,1002.77
2017-03-20T07:45:03.847Z,1002.7
2017-03-20T07:45:44.323Z,1002.78
2017-03-20T07:46:24.861Z,1002.72
2017-03-20T07:47:05.360Z,1002.71
2017-03-20T07:47:45.855Z,1002.68
2017-03-20T07:48:26.384Z,1002.45
2017-03-20T07:49:06.882Z,1002.06
2017-03-20T07:49:47.427Z,1002.02
2017-03-20T07:50:27.919Z,1002.02
2017-03-20T07:51:08.495Z,1002
2017-03-20T07:51:49.049Z,1002.77
2017-03-20T07:52:29.625Z,1002.82
2017-03-20T07:53:10.138Z,1002.89
2017-03-20T07:53:50.748Z,1002.99
2017-03-20T07:54:32.110Z,1002.98
2017-03-20T07:55:12.673Z,1002.71
2017-03-20T07:55:53.264Z,1002.43
2017-03-20T07:56:33.935Z,1002.11
2017-03-20T07:57:14.464Z,1002.09
2017-03-20T07:57:55.024Z,1002.11
2017-03-20T07:58:35.654Z,1002
2017-03-20T07:59:16.220Z,1001.99
2017-03-20T07:59:56.850Z,1002.28
2017-03-20T08:00:37.353Z,1002.61
2017-03-20T08:01:17.866Z,1002.93
2017-03-20T08:01:58.362Z,1003.39
2017-03-20T08:02:38.863Z,1003.23
2017-03-20T08:03:19.356Z,1002.95
2017-03-20T08:03:59.858Z,1003.04
2017-03-20T08:04:40.374Z,1003.02
2017-03-20T08:05:20.895Z,1003.01
2017-03-20T08:06:01.402Z,1002.89
2017-03-20T08:06:41.877Z,1003.01
2017-03-20T08:07:22.375Z,1003.07
2017-03-20T08:08:02.873Z,1002.92
2017-03-20T08:08:43.380Z,1002.91
2017-03-20T08:09:23.857Z,1002.7
2017-03-20T08:10:04.352Z,1002.83
2017-03-20T08:10:44.858Z,1002.41
2017-03-20T08:11:25.364Z,1003
2017-03-20T08:12:05.858Z,1002.23
2017-03-20T08:12:46.363Z,1002.96
2017-03-20T08:13:26.876Z,1002.26
2017-03-20T08:14:07.374Z,1002.57
2017-03-20T08:14:47.864Z,1002.34
2017-03-20T08:15:28.373Z,1002.58
2017-03-20T08:16:08.882Z,1002.31
2017-03-20T08:16:49.373Z,1002.2
2017-03-20T08:17:29.937Z,1002.29